Time;durP1;ratioP1;P1;durP2;ratioP2;P2;SDS_P1;SDS_P2;PMS_P1;PMS_P2;Temp;Humidity;BMP_temperature;BMP_pressure;BME280_temperature;BME280_humidity;BME280_pressure;Samples;Min_cycle;Max_cycle;Signal;HPM_P1;HPM_P2
2022/03/20 00:01:02;;;;;;;31.48;15.15;;;;;;;;;;4975475;28;20175;-83
2022/03/20 00:03:29;;;;;;;25.05;13.68;;;;;;;;;;4976595;28;20160;-81
2022/03/20 00:05:58;;;;;;;25.40;13.75;;;;;;;;;;4957278;28;20066;-81
2022/03/20 00:08:28;;;;;;;25.23;14.00;;;;;;;;;;4974612;28;20476;-81
2022/03/20 00:10:57;;;;;;;30.08;14.48;;;;;;;;;;4974258;28;20117;-81
2022/03/20 00:13:25;;;;;;;28.90;14.00;;;;;;;;;;4972573;28;20385;-81
2022/03/20 00:15:53;;;;;;;26.33;13.52;;;;;;;;;;4971564;28;20440;-82
2022/03/20 00:18:23;;;;;;;22.60;13.57;;;;;;;;;;4955215;28;20356;-84
2022/03/20 00:20:51;;;;;;;26.38;13.82;;;;;;;;;;4981338;28;20078;-82
2022/03/20 00:23:23;;;;;;;27.65;13.88;;;;;;;;;;4977633;28;20090;-81
2022/03/20 00:25:51;;;;;;;26.75;13.35;;;;;;;;;;4974931;28;20058;-82
2022/03/20 00:28:19;;;;;;;31.00;14.40;;;;;;;;;;4956400;28;20055;-82
2022/03/20 00:30:48;;;;;;;28.20;14.90;;;;;;;;;;4976719;28;20121;-81
2022/03/20 00:33:15;;;;;;;29.58;15.77;;;;;;;;;;4981547;28;20047;-82
2022/03/20 00:35:42;;;;;;;22.30;12.20;;;;;;;;;;4975581;28;20094;-83
2022/03/20 00:38:11;;;;;;;29.35;14.23;;;;;;;;;;4979545;28;20073;-81
2022/03/20 00:40:40;;;;;;;26.77;14.30;;;;;;;;;;4964061;28;20043;-83
2022/03/20 00:43:08;;;;;;;30.38;14.95;;;;;;;;;;4955422;28;20093;-82
2022/03/20 00:45:35;;;;;;;26.50;14.85;;;;;;;;;;4974035;28;20051;-81
2022/03/20 00:48:02;;;;;;;28.25;14.93;;;;;;;;;;4956513;28;20074;-83
2022/03/20 00:50:29;;;;;;;31.55;15.50;;;;;;;;;;4976193;28;20062;-82
2022/03/20 00:52:57;;;;;;;30.95;16.17;;;;;;;;;;4939056;28;20121;-82
2022/03/20 00:55:25;;;;;;;28.13;14.57;;;;;;;;;;4951978;28;20134;-81
2022/03/20 00:57:54;;;;;;;24.90;14.07;;;;;;;;;;4972389;28;20038;-82
2022/03/20 01:00:21;;;;;;;28.90;14.32;;;;;;;;;;4954549;28;20471;-82
2022/03/20 01:02:48;;;;;;;29.15;15.63;;;;;;;;;;4972700;28;20105;-83
2022/03/20 01:05:16;;;;;;;30.55;15.05;;;;;;;;;;4957431;28;20142;-83
2022/03/20 01:07:44;;;;;;;28.52;14.18;;;;;;;;;;4975926;28;20462;-81
2022/03/20 01:10:13;;;;;;;30.00;16.88;;;;;;;;;;4980238;28;20145;-81
2022/03/20 01:12:41;;;;;;;26.15;13.80;;;;;;;;;;4977411;28;20467;-82
2022/03/20 01:15:11;;;;;;;26.05;15.05;;;;;;;;;;4974869;28;20070;-82
2022/03/20 01:17:38;;;;;;;26.08;14.23;;;;;;;;;;4974723;28;20086;-81
2022/03/20 01:20:09;;;;;;;24.33;12.45;;;;;;;;;;4971353;28;20510;-81
2022/03/20 01:22:39;;;;;;;30.08;14.52;;;;;;;;;;4973689;28;20058;-81
2022/03/20 01:25:07;;;;;;;24.48;14.77;;;;;;;;;;4977830;28;20484;-81
2022/03/20 01:27:35;;;;;;;28.17;15.07;;;;;;;;;;4977194;28;20086;-81
2022/03/20 01:30:02;;;;;;;33.35;16.38;;;;;;;;;;4959511;28;20443;-81
2022/03/20 01:32:33;;;;;;;28.20;15.02;;;;;;;;;;4977860;28;20116;-82
2022/03/20 01:35:00;;;;;;;26.27;13.48;;;;;;;;;;4973922;28;20089;-83
2022/03/20 01:37:28;;;;;;;31.25;15.07;;;;;;;;;;4968289;28;20140;-81
2022/03/20 01:39:56;;;;;;;29.17;15.70;;;;;;;;;;4979735;28;20085;-83
2022/03/20 01:42:24;;;;;;;34.33;17.90;;;;;;;;;;4977203;28;20066;-82
2022/03/20 01:44:53;;;;;;;30.88;15.25;;;;;;;;;;4976106;28;20097;-81
2022/03/20 01:47:19;;;;;;;28.45;13.40;;;;;;;;;;4979324;28;20170;-82
2022/03/20 01:49:50;;;;;;;27.52;14.65;;;;;;;;;;4995228;28;20074;-81
2022/03/20 01:52:24;;;;;;;28.55;14.85;;;;;;;;;;4998035;28;20066;-81
2022/03/20 01:54:53;;;;;;;30.35;15.48;;;;;;;;;;4994177;28;20050;-82
2022/03/20 01:57:21;;;;;;;30.73;14.93;;;;;;;;;;4996900;28;20070;-81
2022/03/20 01:59:49;;;;;;;25.98;13.95;;;;;;;;;;4994115;28;20081;-81
2022/03/20 02:02:16;;;;;;;25.25;13.07;;;;;;;;;;5000205;28;20062;-81
2022/03/20 02:04:44;;;;;;;25.33;13.73;;;;;;;;;;4996177;28;20050;-81
2022/03/20 02:07:13;;;;;;;24.38;13.45;;;;;;;;;;4998665;28;20073;-81
2022/03/20 02:09:43;;;;;;;26.45;13.98;;;;;;;;;;4979726;28;20471;-81
2022/03/20 02:12:12;;;;;;;27.95;13.13;;;;;;;;;;4982065;28;20078;-81
2022/03/20 02:14:39;;;;;;;25.05;14.73;;;;;;;;;;5000112;28;20388;-81
2022/03/20 02:17:07;;;;;;;28.02;13.63;;;;;;;;;;4969013;28;20104;-81
2022/03/20 02:19:35;;;;;;;27.90;14.18;;;;;;;;;;4982301;28;20126;-81
2022/03/20 02:22:08;;;;;;;24.15;14.85;;;;;;;;;;4982324;28;20108;-81
2022/03/20 02:24:40;;;;;;;24.92;13.85;;;;;;;;;;5001322;28;20042;-81
2022/03/20 02:27:09;;;;;;;35.28;16.45;;;;;;;;;;5000629;28;20049;-81
2022/03/20 02:29:36;;;;;;;27.52;14.70;;;;;;;;;;4999817;28;20125;-81
2022/03/20 02:32:05;;;;;;;31.70;15.93;;;;;;;;;;5000753;28;20073;-81
2022/03/20 02:34:32;;;;;;;28.65;15.00;;;;;;;;;;5003958;28;20042;-81
2022/03/20 02:37:00;;;;;;;29.98;13.63;;;;;;;;;;5016384;28;20076;-81
2022/03/20 02:39:32;;;;;;;28.42;15.13;;;;;;;;;;5003237;28;20042;-81
2022/03/20 02:42:02;;;;;;;32.47;15.43;;;;;;;;;;5021288;28;20077;-81
2022/03/20 02:44:51;;;;;;;26.13;13.77;;;;;;;;;;5020822;28;20112;-81
2022/03/20 02:47:23;;;;;;;27.17;14.38;;;;;;;;;;5011151;28;20070;-81
2022/03/20 02:49:51;;;;;;;28.00;13.07;;;;;;;;;;5001154;28;20106;-81
2022/03/20 02:52:18;;;;;;;28.30;15.13;;;;;;;;;;4999571;28;20050;-80
2022/03/20 02:54:47;;;;;;;27.63;14.57;;;;;;;;;;4983928;28;20078;-80
2022/03/20 02:57:15;;;;;;;30.45;14.32;;;;;;;;;;5000443;28;20042;-80
2022/03/20 02:59:47;;;;;;;30.40;14.85;;;;;;;;;;4983643;28;20046;-80
2022/03/20 03:02:18;;;;;;;30.23;15.82;;;;;;;;;;4983210;28;20038;-81
2022/03/20 03:04:45;;;;;;;27.88;14.45;;;;;;;;;;5000069;28;20387;-81
2022/03/20 03:07:13;;;;;;;26.55;13.52;;;;;;;;;;4982105;28;20077;-81
2022/03/20 03:12:25;;;;;;;27.27;13.95;;;;;;;;;;4984872;28;20053;-80
2022/03/20 03:17:36;;;;;;;29.38;14.60;;;;;;;;;;4999297;28;20069;-81
2022/03/20 03:20:04;;;;;;;29.40;15.02;;;;;;;;;;4982629;28;20042;-81
2022/03/20 03:22:31;;;;;;;33.33;15.85;;;;;;;;;;4998558;28;20061;-81
2022/03/20 03:24:57;;;;;;;28.95;14.35;;;;;;;;;;4982542;28;20069;-81
2022/03/20 03:27:26;;;;;;;25.85;12.48;;;;;;;;;;4996622;28;20076;-81
2022/03/20 03:29:54;;;;;;;25.00;13.98;;;;;;;;;;4997803;28;20061;-81
2022/03/20 03:32:21;;;;;;;24.45;13.57;;;;;;;;;;4982378;28;20084;-81
2022/03/20 03:37:32;;;;;;;23.48;11.60;;;;;;;;;;4984545;28;20419;-81
2022/03/20 03:40:00;;;;;;;28.27;14.50;;;;;;;;;;4999064;28;20069;-81
2022/03/20 03:42:31;;;;;;;28.30;13.65;;;;;;;;;;4982733;28;20093;-81
2022/03/20 03:44:58;;;;;;;26.20;14.55;;;;;;;;;;5001876;28;20050;-80
2022/03/20 03:47:25;;;;;;;26.85;14.05;;;;;;;;;;5001538;28;20038;-80
2022/03/20 03:49:53;;;;;;;25.73;13.82;;;;;;;;;;5002084;28;20049;-80
2022/03/20 03:52:22;;;;;;;27.25;14.30;;;;;;;;;;4999657;28;20442;-81
2022/03/20 03:54:49;;;;;;;29.52;14.68;;;;;;;;;;5002173;28;20078;-81
2022/03/20 03:57:17;;;;;;;29.58;13.95;;;;;;;;;;5001487;28;20073;-81
2022/03/20 03:59:45;;;;;;;30.63;15.38;;;;;;;;;;5001036;28;20101;-82
2022/03/20 04:02:13;;;;;;;27.42;14.40;;;;;;;;;;5000613;28;20038;-81
2022/03/20 04:04:41;;;;;;;26.85;13.82;;;;;;;;;;4982972;28;20070;-81
2022/03/20 04:07:08;;;;;;;29.58;14.05;;;;;;;;;;5000572;28;20133;-81
2022/03/20 04:09:36;;;;;;;28.58;13.35;;;;;;;;;;5001607;28;20077;-81
2022/03/20 04:12:04;;;;;;;26.20;13.27;;;;;;;;;;5013857;28;20092;-81
2022/03/20 04:14:32;;;;;;;26.02;13.07;;;;;;;;;;5019856;28;20073;-81
2022/03/20 04:17:05;;;;;;;29.10;14.77;;;;;;;;;;5004093;28;20065;-81
2022/03/20 04:19:33;;;;;;;27.27;13.55;;;;;;;;;;5003651;28;20049;-81
2022/03/20 04:22:01;;;;;;;27.70;14.15;;;;;;;;;;5020947;28;20517;-81
2022/03/20 04:24:28;;;;;;;31.02;14.13;;;;;;;;;;5021134;28;20471;-81
2022/03/20 04:26:55;;;;;;;31.33;14.32;;;;;;;;;;5021242;28;20098;-81
2022/03/20 04:29:23;;;;;;;24.30;14.60;;;;;;;;;;5020643;28;20046;-81
2022/03/20 04:31:50;;;;;;;25.27;12.50;;;;;;;;;;4987068;28;20081;-81
2022/03/20 04:34:20;;;;;;;27.05;13.95;;;;;;;;;;4998653;28;20558;-81
2022/03/20 04:36:46;;;;;;;28.92;13.73;;;;;;;;;;5000374;28;20050;-81
2022/03/20 04:39:16;;;;;;;29.80;15.93;;;;;;;;;;5016491;28;20050;-82
2022/03/20 04:41:44;;;;;;;27.27;14.35;;;;;;;;;;4988528;28;20075;-81
2022/03/20 04:44:12;;;;;;;28.70;14.27;;;;;;;;;;4991476;28;20042;-81
2022/03/20 04:46:39;;;;;;;28.45;14.30;;;;;;;;;;4986382;28;20046;-81
2022/03/20 05:00:11;;;;;;;35.63;16.35;;;;;;;;;;5006055;28;20132;-82
2022/03/20 05:02:39;;;;;;;35.40;16.27;;;;;;;;;;5006387;28;20113;-81
2022/03/20 05:05:08;;;;;;;32.38;15.77;;;;;;;;;;4987935;28;20046;-81
2022/03/20 05:07:38;;;;;;;31.83;16.05;;;;;;;;;;4988278;28;20046;-81
2022/03/20 05:15:35;;;;;;;31.17;15.25;;;;;;;;;;4990767;28;20046;-81
2022/03/20 05:18:03;;;;;;;35.13;15.02;;;;;;;;;;5007015;28;20047;-81
2022/03/20 05:20:30;;;;;;;32.42;16.05;;;;;;;;;;5004984;28;20124;-81
2022/03/20 05:23:00;;;;;;;36.83;19.35;;;;;;;;;;4987180;28;20069;-81
2022/03/20 05:25:29;;;;;;;34.97;16.75;;;;;;;;;;5001242;28;20097;-81
2022/03/20 05:27:56;;;;;;;31.95;16.38;;;;;;;;;;5001100;28;20038;-81
2022/03/20 05:30:23;;;;;;;35.55;17.27;;;;;;;;;;5006314;28;20043;-81
2022/03/20 05:32:50;;;;;;;35.05;16.85;;;;;;;;;;5006928;28;20050;-80
2022/03/20 05:35:18;;;;;;;35.97;17.35;;;;;;;;;;5006703;28;20069;-81
2022/03/20 05:37:45;;;;;;;23.88;13.98;;;;;;;;;;4989115;28;20046;-80
2022/03/20 05:40:15;;;;;;;30.75;15.93;;;;;;;;;;5006156;28;20112;-81
2022/03/20 05:42:43;;;;;;;30.55;15.82;;;;;;;;;;5007173;28;20038;-81
2022/03/20 05:45:11;;;;;;;31.67;14.80;;;;;;;;;;5006242;28;20047;-81
2022/03/20 05:47:39;;;;;;;34.38;17.83;;;;;;;;;;5006719;28;20050;-81
2022/03/20 05:50:08;;;;;;;40.78;21.23;;;;;;;;;;5007673;28;20487;-80
2022/03/20 05:52:38;;;;;;;34.72;18.92;;;;;;;;;;5001754;28;20453;-81
2022/03/20 05:55:05;;;;;;;34.83;17.65;;;;;;;;;;4988660;28;20092;-80
2022/03/20 06:00:26;;;;;;;33.80;16.30;;;;;;;;;;5006089;28;20053;-81
2022/03/20 06:03:01;;;;;;;35.05;17.30;;;;;;;;;;5006397;28;20097;-81
2022/03/20 06:05:28;;;;;;;33.05;16.10;;;;;;;;;;4991059;28;20052;-81
2022/03/20 06:07:55;;;;;;;34.90;18.52;;;;;;;;;;4989209;28;20199;-81
2022/03/20 06:10:22;;;;;;;35.80;17.88;;;;;;;;;;4987951;28;20436;-81
2022/03/20 06:12:50;;;;;;;35.65;17.75;;;;;;;;;;4988404;28;20073;-81
2022/03/20 06:15:19;;;;;;;35.92;18.00;;;;;;;;;;5005673;28;20038;-81
2022/03/20 06:17:47;;;;;;;34.35;17.60;;;;;;;;;;5006678;28;20053;-81
2022/03/20 06:20:17;;;;;;;38.08;18.20;;;;;;;;;;5006617;28;20085;-81
2022/03/20 06:22:47;;;;;;;30.73;16.80;;;;;;;;;;5006679;28;20078;-81
2022/03/20 06:25:15;;;;;;;32.47;18.08;;;;;;;;;;5004921;28;20057;-81
2022/03/20 06:27:46;;;;;;;38.72;19.67;;;;;;;;;;4986653;28;20466;-81
2022/03/20 06:30:16;;;;;;;36.67;19.40;;;;;;;;;;5005452;28;20046;-81
2022/03/20 06:32:44;;;;;;;33.03;16.42;;;;;;;;;;5004964;28;20072;-81
2022/03/20 06:35:12;;;;;;;36.42;16.77;;;;;;;;;;4989628;28;20050;-81
2022/03/20 06:37:39;;;;;;;36.38;18.27;;;;;;;;;;5006633;28;20050;-81
2022/03/20 06:40:08;;;;;;;39.03;21.00;;;;;;;;;;5007424;28;20042;-81
2022/03/20 06:42:38;;;;;;;46.05;24.20;;;;;;;;;;5005930;28;20096;-81
2022/03/20 06:45:10;;;;;;;34.00;18.30;;;;;;;;;;4989310;28;20074;-81
2022/03/20 06:47:38;;;;;;;34.85;17.95;;;;;;;;;;5006979;28;20046;-81
2022/03/20 06:50:07;;;;;;;37.65;18.02;;;;;;;;;;4998233;28;20047;-81
2022/03/20 06:52:34;;;;;;;29.55;15.57;;;;;;;;;;4986628;28;20063;-81
2022/03/20 06:55:04;;;;;;;34.70;16.70;;;;;;;;;;4986171;28;20043;-82
2022/03/20 06:57:31;;;;;;;32.17;16.95;;;;;;;;;;4986593;28;20046;-82
2022/03/20 07:00:03;;;;;;;34.53;17.67;;;;;;;;;;4968198;28;20050;-81
2022/03/20 07:02:34;;;;;;;34.65;17.58;;;;;;;;;;4986113;28;20043;-81
2022/03/20 07:05:02;;;;;;;31.23;16.73;;;;;;;;;;4985265;28;20043;-81
2022/03/20 07:07:29;;;;;;;32.45;17.13;;;;;;;;;;4984974;28;20046;-81
2022/03/20 07:09:57;;;;;;;30.77;16.05;;;;;;;;;;4984697;28;20081;-81
2022/03/20 07:12:26;;;;;;;34.63;17.25;;;;;;;;;;4967880;28;20071;-81
2022/03/20 07:14:55;;;;;;;28.73;16.08;;;;;;;;;;5002472;28;20077;-81
2022/03/20 07:17:24;;;;;;;30.67;16.50;;;;;;;;;;4972377;28;20050;-81
2022/03/20 07:19:51;;;;;;;28.75;15.32;;;;;;;;;;5004745;28;20046;-84
2022/03/20 07:22:22;;;;;;;30.00;17.10;;;;;;;;;;5005399;28;20046;-82
2022/03/20 07:24:50;;;;;;;28.45;15.65;;;;;;;;;;5006543;28;20101;-81
2022/03/20 07:30:01;;;;;;;32.08;17.55;;;;;;;;;;5007123;28;20058;-81
2022/03/20 07:32:28;;;;;;;27.92;16.20;;;;;;;;;;5005540;28;20438;-81
2022/03/20 07:34:55;;;;;;;28.52;16.45;;;;;;;;;;4989662;28;20053;-82
2022/03/20 07:37:26;;;;;;;29.38;15.55;;;;;;;;;;4973180;28;20050;-82
2022/03/20 07:39:53;;;;;;;30.42;17.00;;;;;;;;;;5006544;28;20101;-82
2022/03/20 07:42:23;;;;;;;26.15;16.10;;;;;;;;;;5005986;28;20383;-82
2022/03/20 07:44:50;;;;;;;28.90;16.95;;;;;;;;;;5004267;28;20415;-83
2022/03/20 07:47:19;;;;;;;28.80;16.50;;;;;;;;;;4987754;28;20050;-82
2022/03/20 07:49:46;;;;;;;30.33;16.05;;;;;;;;;;5021064;28;20104;-82
2022/03/20 07:52:13;;;;;;;30.52;15.50;;;;;;;;;;5025420;28;20042;-82
2022/03/20 07:54:44;;;;;;;31.10;16.38;;;;;;;;;;5007097;28;20042;-82
2022/03/20 07:57:11;;;;;;;30.50;16.60;;;;;;;;;;5026411;28;20110;-82
2022/03/20 07:59:39;;;;;;;27.30;16.02;;;;;;;;;;5024097;28;20077;-82
2022/03/20 08:02:07;;;;;;;28.83;16.70;;;;;;;;;;4992367;28;20041;-82
2022/03/20 08:04:35;;;;;;;28.15;16.67;;;;;;;;;;5007778;28;20050;-82
2022/03/20 08:07:03;;;;;;;25.65;15.00;;;;;;;;;;5022571;28;20077;-82
2022/03/20 08:09:30;;;;;;;27.45;15.55;;;;;;;;;;5004982;28;20065;-82
2022/03/20 08:12:01;;;;;;;30.10;17.95;;;;;;;;;;5005502;28;20097;-83
2022/03/20 08:14:28;;;;;;;28.23;16.17;;;;;;;;;;4986912;28;20052;-84
2022/03/20 08:16:55;;;;;;;27.10;16.10;;;;;;;;;;5005013;28;20139;-84
2022/03/20 08:19:24;;;;;;;28.65;15.93;;;;;;;;;;5001366;28;20038;-85
2022/03/20 08:21:53;;;;;;;25.58;14.82;;;;;;;;;;4986746;28;20046;-83
2022/03/20 08:24:21;;;;;;;26.98;15.93;;;;;;;;;;5003247;28;20070;-85
2022/03/20 08:26:49;;;;;;;28.02;16.38;;;;;;;;;;4985621;28;20050;-85
2022/03/20 08:29:19;;;;;;;25.70;15.00;;;;;;;;;;4985606;28;20054;-84
2022/03/20 08:31:47;;;;;;;28.95;15.38;;;;;;;;;;4987435;28;20435;-85
2022/03/20 08:34:16;;;;;;;26.17;14.43;;;;;;;;;;4980455;28;20045;-85
2022/03/20 08:36:44;;;;;;;22.90;14.73;;;;;;;;;;4976140;28;20066;-85
2022/03/20 08:39:11;;;;;;;26.30;15.30;;;;;;;;;;4979736;28;20093;-85
2022/03/20 08:41:38;;;;;;;28.20;15.50;;;;;;;;;;4998297;28;20423;-84
2022/03/20 08:44:08;;;;;;;27.20;15.68;;;;;;;;;;4999958;28;20138;-85
2022/03/20 08:46:38;;;;;;;26.13;16.65;;;;;;;;;;5000971;28;20101;-83
2022/03/20 08:49:05;;;;;;;26.83;15.48;;;;;;;;;;5001642;28;20057;-81
2022/03/20 08:51:33;;;;;;;24.10;14.80;;;;;;;;;;4999753;28;20048;-82
2022/03/20 08:54:00;;;;;;;24.88;15.20;;;;;;;;;;4980950;28;20051;-82
2022/03/20 08:56:27;;;;;;;25.05;15.32;;;;;;;;;;4998802;28;20076;-83
2022/03/20 08:58:54;;;;;;;28.38;15.60;;;;;;;;;;5000789;28;20042;-82
2022/03/20 09:01:21;;;;;;;24.85;15.75;;;;;;;;;;4987056;28;20093;-82
2022/03/20 09:03:51;;;;;;;23.85;15.18;;;;;;;;;;4987294;28;20135;-82
2022/03/20 09:06:19;;;;;;;27.42;15.77;;;;;;;;;;5003082;28;20046;-84
2022/03/20 09:08:49;;;;;;;25.77;14.93;;;;;;;;;;4985052;28;20070;-84
2022/03/20 09:11:18;;;;;;;24.98;15.52;;;;;;;;;;5001712;28;20313;-85
2022/03/20 09:13:45;;;;;;;24.25;15.32;;;;;;;;;;5000086;28;20049;-85
2022/03/20 09:19:04;;;;;;;25.15;13.93;;;;;;;;;;5003343;28;20049;-84
2022/03/20 09:21:32;;;;;;;22.50;14.45;;;;;;;;;;5003371;28;20116;-84
2022/03/20 09:24:00;;;;;;;26.88;15.88;;;;;;;;;;5005342;28;20047;-84
2022/03/20 09:26:27;;;;;;;23.63;15.02;;;;;;;;;;4987574;28;20047;-82
2022/03/20 09:28:55;;;;;;;23.25;15.85;;;;;;;;;;5017158;28;20049;-82
2022/03/20 09:31:26;;;;;;;22.95;14.75;;;;;;;;;;5021193;28;20069;-85
2022/03/20 09:33:56;;;;;;;24.83;15.45;;;;;;;;;;4988938;28;20054;-84
2022/03/20 09:36:25;;;;;;;23.92;15.55;;;;;;;;;;5024549;28;20042;-84
2022/03/20 09:38:53;;;;;;;23.63;16.08;;;;;;;;;;5021164;28;20119;-84
2022/03/20 09:41:23;;;;;;;20.25;13.25;;;;;;;;;;4966365;28;20049;-83
2022/03/20 09:43:50;;;;;;;23.85;15.52;;;;;;;;;;5003158;28;20085;-84
2022/03/20 09:46:22;;;;;;;22.90;15.68;;;;;;;;;;5001106;28;20463;-84
2022/03/20 09:48:51;;;;;;;23.70;14.88;;;;;;;;;;5017783;28;20154;-84
2022/03/20 09:51:21;;;;;;;26.00;16.20;;;;;;;;;;5000000;28;20069;-84
2022/03/20 09:53:52;;;;;;;25.80;17.02;;;;;;;;;;5007560;28;20467;-84
2022/03/20 09:56:20;;;;;;;25.20;15.43;;;;;;;;;;4983858;28;20042;-84
2022/03/20 09:58:47;;;;;;;24.98;15.98;;;;;;;;;;5003048;28;20345;-84
2022/03/20 10:01:17;;;;;;;22.73;14.82;;;;;;;;;;5000930;28;20440;-81
2022/03/20 10:03:46;;;;;;;22.88;15.40;;;;;;;;;;4965393;28;20042;-79
2022/03/20 10:06:17;;;;;;;21.60;15.00;;;;;;;;;;4993230;28;20112;-83
2022/03/20 10:09:07;;;;;;;23.75;15.65;;;;;;;;;;5015750;28;20042;-82
2022/03/20 10:11:41;;;;;;;25.15;15.05;;;;;;;;;;4989832;28;20514;-84
2022/03/20 10:14:12;;;;;;;23.05;15.32;;;;;;;;;;4996651;28;20057;-80
2022/03/20 10:16:44;;;;;;;22.40;14.43;;;;;;;;;;5020376;28;20046;-82
2022/03/20 10:19:30;;;;;;;22.35;14.57;;;;;;;;;;4958574;28;20101;-83
2022/03/20 10:21:59;;;;;;;24.33;15.73;;;;;;;;;;5013951;28;20049;-82
2022/03/20 10:24:31;;;;;;;26.65;16.40;;;;;;;;;;5010718;28;20069;-82
2022/03/20 10:27:08;;;;;;;22.30;15.15;;;;;;;;;;4974474;28;20038;-87
2022/03/20 10:29:37;;;;;;;24.90;16.23;;;;;;;;;;5014333;28;20046;-86
2022/03/20 10:32:09;;;;;;;22.05;15.48;;;;;;;;;;4986999;28;20038;-86
2022/03/20 10:34:50;;;;;;;22.27;14.85;;;;;;;;;;5009134;28;20050;-85
2022/03/20 10:37:20;;;;;;;23.35;15.93;;;;;;;;;;4988924;28;20050;-86
2022/03/20 10:40:10;;;;;;;21.42;14.25;;;;;;;;;;4987706;28;20108;-86
2022/03/20 10:42:38;;;;;;;21.38;14.88;;;;;;;;;;5006589;28;20061;-83
2022/03/20 10:45:08;;;;;;;23.85;14.85;;;;;;;;;;4986755;28;20121;-83
2022/03/20 10:47:36;;;;;;;21.60;13.98;;;;;;;;;;5008006;28;20046;-83
2022/03/20 10:50:07;;;;;;;23.33;15.68;;;;;;;;;;5007537;28;20533;-85
2022/03/20 10:52:36;;;;;;;22.23;15.15;;;;;;;;;;5016033;28;20049;-83
2022/03/20 10:55:12;;;;;;;20.50;13.55;;;;;;;;;;5010619;28;20125;-83
2022/03/20 10:57:47;;;;;;;23.77;14.70;;;;;;;;;;4979742;28;20045;-84
2022/03/20 11:00:21;;;;;;;24.58;15.95;;;;;;;;;;4993092;28;20046;-83
2022/03/20 11:02:52;;;;;;;23.13;15.75;;;;;;;;;;4988422;28;20051;-88
2022/03/20 11:05:20;;;;;;;22.23;14.40;;;;;;;;;;4988517;28;20050;-84
2022/03/20 11:07:47;;;;;;;20.98;14.95;;;;;;;;;;5006046;28;20387;-84
2022/03/20 11:10:19;;;;;;;20.00;14.48;;;;;;;;;;4990606;28;20085;-84
2022/03/20 11:12:48;;;;;;;24.25;15.48;;;;;;;;;;4989004;28;20038;-84
2022/03/20 11:15:16;;;;;;;21.83;14.98;;;;;;;;;;4988277;28;20050;-84
2022/03/20 11:17:45;;;;;;;21.55;15.15;;;;;;;;;;5004098;28;20038;-84
2022/03/20 11:20:13;;;;;;;24.23;16.23;;;;;;;;;;5004830;28;20070;-80
2022/03/20 11:22:44;;;;;;;22.83;15.88;;;;;;;;;;4989424;28;20426;-79
2022/03/20 11:25:11;;;;;;;21.42;14.60;;;;;;;;;;4986156;28;20054;-79
2022/03/20 11:27:42;;;;;;;22.88;14.95;;;;;;;;;;4987249;28;20394;-77
2022/03/20 11:30:10;;;;;;;22.48;14.18;;;;;;;;;;5000454;28;20386;-80
2022/03/20 11:32:39;;;;;;;20.75;14.00;;;;;;;;;;5001356;28;20417;-80
2022/03/20 11:35:07;;;;;;;22.67;14.45;;;;;;;;;;4985336;28;20491;-80
2022/03/20 11:37:44;;;;;;;24.00;15.60;;;;;;;;;;4998897;28;20041;-80
2022/03/20 11:40:19;;;;;;;20.92;14.38;;;;;;;;;;5023593;28;20046;-80
2022/03/20 11:42:48;;;;;;;22.20;15.48;;;;;;;;;;5025065;28;20474;-78
2022/03/20 11:45:18;;;;;;;22.13;15.07;;;;;;;;;;5024679;28;20041;-78
2022/03/20 11:47:46;;;;;;;20.40;15.05;;;;;;;;;;5023236;28;20125;-79
2022/03/20 11:50:21;;;;;;;20.05;14.60;;;;;;;;;;5020302;28;20049;-80
2022/03/20 11:52:55;;;;;;;19.85;14.07;;;;;;;;;;5018170;28;20048;-80
2022/03/20 11:55:32;;;;;;;18.85;13.15;;;;;;;;;;5005865;28;20046;-79
2022/03/20 11:58:02;;;;;;;22.02;14.93;;;;;;;;;;5005502;28;20419;-79
2022/03/20 12:00:30;;;;;;;20.15;14.30;;;;;;;;;;5014186;28;20038;-79
2022/03/20 12:03:27;;;;;;;20.00;14.38;;;;;;;;;;4986879;28;20046;-78
2022/03/20 12:06:30;;;;;;;21.48;14.35;;;;;;;;;;4997682;28;20420;-81
2022/03/20 12:09:03;;;;;;;19.48;12.50;;;;;;;;;;5000340;28;20053;-81
2022/03/20 12:11:37;;;;;;;29.77;19.15;;;;;;;;;;5000101;28;20046;-83
2022/03/20 12:14:17;;;;;;;19.08;13.27;;;;;;;;;;5014273;28;20081;-79
2022/03/20 12:16:58;;;;;;;23.35;16.17;;;;;;;;;;4994798;28;20054;-81
2022/03/20 12:19:37;;;;;;;41.10;34.17;;;;;;;;;;5005623;28;20073;-82
2022/03/20 12:22:14;;;;;;;35.25;24.85;;;;;;;;;;4990752;28;20101;-82
2022/03/20 12:24:57;;;;;;;29.27;20.67;;;;;;;;;;4990711;28;20046;-82
2022/03/20 12:27:46;;;;;;;22.20;15.20;;;;;;;;;;5003414;28;20051;-82
2022/03/20 12:30:40;;;;;;;40.00;33.20;;;;;;;;;;5008516;28;20483;-84
2022/03/20 12:33:24;;;;;;;47.08;34.35;;;;;;;;;;5005846;28;20050;-84
2022/03/20 12:35:52;;;;;;;27.70;18.35;;;;;;;;;;4985699;28;20050;-82
2022/03/20 12:38:45;;;;;;;18.30;13.07;;;;;;;;;;4988679;28;20046;-82
2022/03/20 12:41:17;;;;;;;16.23;11.25;;;;;;;;;;5004646;28;20038;-82
2022/03/20 12:43:58;;;;;;;19.27;11.35;;;;;;;;;;5006693;28;20054;-82
2022/03/20 12:46:29;;;;;;;18.17;12.20;;;;;;;;;;5006094;28;20043;-82
2022/03/20 12:49:04;;;;;;;17.83;11.88;;;;;;;;;;5004971;28;20085;-82
2022/03/20 12:51:38;;;;;;;19.52;13.07;;;;;;;;;;5006445;28;20042;-82
2022/03/20 12:54:14;;;;;;;21.40;13.10;;;;;;;;;;5006290;28;20042;-82
2022/03/20 12:56:52;;;;;;;16.92;12.38;;;;;;;;;;5007179;28;20046;-82
2022/03/20 12:59:20;;;;;;;17.75;11.55;;;;;;;;;;4988817;28;20048;-82
2022/03/20 13:01:49;;;;;;;18.73;12.32;;;;;;;;;;4988455;28;20493;-82
2022/03/20 13:04:18;;;;;;;15.65;11.07;;;;;;;;;;4974800;28;20046;-82
2022/03/20 13:06:46;;;;;;;16.25;12.23;;;;;;;;;;4978064;28;20053;-82
2022/03/20 13:09:14;;;;;;;16.55;11.90;;;;;;;;;;5011048;28;20046;-82
2022/03/20 13:11:53;;;;;;;16.73;11.10;;;;;;;;;;5011905;28;20427;-82
2022/03/20 13:14:21;;;;;;;15.63;11.60;;;;;;;;;;4995989;28;20053;-82
2022/03/20 13:16:51;;;;;;;17.17;12.48;;;;;;;;;;4976763;28;20050;-82
2022/03/20 13:19:34;;;;;;;16.52;10.80;;;;;;;;;;5016610;28;20037;-80
2022/03/20 13:22:06;;;;;;;16.48;10.48;;;;;;;;;;5029588;28;20074;-81
2022/03/20 13:24:35;;;;;;;14.90;10.43;;;;;;;;;;5029084;28;20096;-80
2022/03/20 13:27:04;;;;;;;19.02;11.35;;;;;;;;;;5022534;28;20090;-81
2022/03/20 13:29:30;;;;;;;17.85;9.85;;;;;;;;;;5015744;28;20038;-80
2022/03/20 13:32:08;;;;;;;15.13;10.73;;;;;;;;;;5002596;28;20046;-80
2022/03/20 13:34:42;;;;;;;17.77;10.85;;;;;;;;;;5001748;28;20089;-81
2022/03/20 13:37:11;;;;;;;16.40;10.57;;;;;;;;;;5002132;28;20135;-81
2022/03/20 13:39:38;;;;;;;15.95;11.23;;;;;;;;;;4999832;28;20042;-81
2022/03/20 13:42:16;;;;;;;15.70;11.48;;;;;;;;;;5002895;28;20069;-80
2022/03/20 13:44:42;;;;;;;17.15;12.18;;;;;;;;;;5003355;28;20058;-80
2022/03/20 13:47:14;;;;;;;17.27;11.45;;;;;;;;;;4988012;28;20042;-81
2022/03/20 13:49:42;;;;;;;16.88;11.93;;;;;;;;;;4980629;28;20102;-81
2022/03/20 13:52:12;;;;;;;15.90;10.63;;;;;;;;;;4987535;28;20077;-82
2022/03/20 13:54:49;;;;;;;13.75;10.10;;;;;;;;;;4986791;28;20065;-84
2022/03/20 13:57:20;;;;;;;14.90;11.30;;;;;;;;;;4972634;28;20403;-86
2022/03/20 14:00:14;;;;;;;15.30;11.18;;;;;;;;;;4952449;28;20109;-88
2022/03/20 14:03:12;;;;;;;14.93;10.75;;;;;;;;;;4973687;28;20043;-85
2022/03/20 14:27:26;;;;;;;13.25;9.55;;;;;;;;;;4890398;23;20072;-81
2022/03/20 14:41:00;;;;;;;15.13;11.00;;;;;;;;;;5005976;28;20140;-88
2022/03/20 14:43:40;;;;;;;16.33;10.43;;;;;;;;;;5002990;28;20045;-89
2022/03/20 14:46:08;;;;;;;13.40;9.40;;;;;;;;;;5004828;28;20132;-88
2022/03/20 14:48:38;;;;;;;17.45;9.65;;;;;;;;;;5019489;28;20451;-89
2022/03/20 14:51:08;;;;;;;15.18;10.52;;;;;;;;;;5002601;28;20052;-88
2022/03/20 14:53:37;;;;;;;16.00;10.23;;;;;;;;;;5022886;28;20073;-88
2022/03/20 14:56:06;;;;;;;12.52;9.15;;;;;;;;;;5018916;28;20184;-88
2022/03/20 14:58:34;;;;;;;14.80;10.30;;;;;;;;;;5002907;28;20080;-87
2022/03/20 15:01:04;;;;;;;16.08;10.70;;;;;;;;;;5002577;28;20045;-87
2022/03/20 15:03:35;;;;;;;13.23;9.60;;;;;;;;;;5019487;28;20474;-87
2022/03/20 15:06:06;;;;;;;12.73;9.50;;;;;;;;;;5019737;28;20054;-86
2022/03/20 15:11:31;;;;;;;14.25;9.57;;;;;;;;;;5004529;28;20480;-86
2022/03/20 15:14:12;;;;;;;13.93;9.52;;;;;;;;;;5003506;28;20041;-86
2022/03/20 15:16:39;;;;;;;10.70;9.10;;;;;;;;;;5019747;28;20060;-86
2022/03/20 15:19:08;;;;;;;13.18;9.25;;;;;;;;;;5002708;28;20132;-88
2022/03/20 15:21:35;;;;;;;10.65;8.57;;;;;;;;;;5002733;28;20052;-88
2022/03/20 15:24:03;;;;;;;10.68;8.05;;;;;;;;;;5002855;28;20042;-86
2022/03/20 15:26:35;;;;;;;12.05;8.95;;;;;;;;;;4975760;28;20042;-83
2022/03/20 15:29:03;;;;;;;14.20;9.88;;;;;;;;;;4974970;28;20057;-83
2022/03/20 15:31:31;;;;;;;14.18;9.88;;;;;;;;;;5001413;28;20042;-81
2022/03/20 15:33:59;;;;;;;14.30;10.40;;;;;;;;;;4983350;28;20050;-84
2022/03/20 15:36:28;;;;;;;16.27;9.05;;;;;;;;;;4984792;28;20038;-83
2022/03/20 15:38:57;;;;;;;11.45;8.73;;;;;;;;;;5008574;28;20138;-82
2022/03/20 15:41:26;;;;;;;12.77;9.57;;;;;;;;;;4977772;28;20038;-84
2022/03/20 15:43:57;;;;;;;13.80;9.88;;;;;;;;;;4995260;28;20104;-86